首页
METAR-TAF:

METAR-TAF

机场 :

Puerto Plata, 多米尼加共和国

纬度: 19-45N, 经度: 070-33W, 海拔: 15米

当前天气观测

该预报发布于21分钟前的23:00 UTC
静风
温度 29°C
湿度 79%
气压 1015 hPa
能见度10公里或以上
散云层高于2300英尺
多云层高于30000英尺

METAR: MDPP 282300Z 00000KT 9999 SCT023 BKN300 29/25 Q1015

时间: 19:21 (23:21 UTC)

预报

该预报发布于7小时和21分钟前的16:00 UTC
预报有效从28日的 18点(UTC)到 29日的 18点(UTC)
风速12节,风向
能见度10公里或以上
散云层高于2000英尺
阴天层高于30000英尺
几率 30%
从 28日的 18点(UTC)到 29日的 00点(UTC)
能見度: 8000
少量云层高于1800英尺, 积雨云.
多云层高于1800英尺
阴天层高于30000英尺
雷暴, 小雨
成为
从 28日的 22点(UTC)到 29日的 00点(UTC)
风速节,风向

TAF: MDPP 281600Z 2818/2918 09012KT 9999 SCT020 OVC300 PROB30 2818/2900 8000 -TSRA FEW018CB BKN018 OVC300 BECMG 2822/2900 00000KT

超过4000个机场的气象观测和天气预报(METAR&TAF报告)。

可查询的气象台以黄色和红色小点在地图上表示。

将鼠标移到小点上方,可查看气象台名称。

然后点击查看天气观测和预报。

如需切换地图:点击带黑十字的绿色按钮放大地图;点击带横线的绿色按钮缩小地图;或者点击绿色箭头查看邻近地区的地图。


METAR-TAF: